Terminal Aerodrome Forecast
Issued by NWS

Home | Current Version | Previous Version | Text Only | Print | Product List | Glossary On
Versions: 1 2 3 4 5 6 7 8 9 10 11 12 13 14 15 16
000
FTUS45 KTFX 181200 AAA
TAFHLN
TAF AMD
KHLN 181253Z 1813/1912 VRB05KT P6SM SCT060 BKN150
     FM190200 VRB04KT P6SM FEW090=

USA.gov is the U.S. government's official web portal to all federal, state and local government web resources and services.